Wezembeek-Oppem, Belgium
Current Conditions -  °F | °C
As of 10:20 PM on Friday 19 Dec 2014 (Local Time) from EBBR Reporting Station
Clear Clear  
Wind Chill: 36°   Ceiling: Unl
Heat Index: 43°   Visibility: 6mi
Dew Point: 36°   Wind: 13mph
Humidity: 76%   Direction: 250°WSW
Pressure: 30.15"   Gusts: NA
Location:  50.84°N, 4.49°E
Report Text: EBBR 192120Z 25011KT CAVOK 06/02 Q1021 NOSIG
Loading
Personal Weather Stations






























Interactive Weather Map New forecast layout! Learn more

10-Day Weather Forecast

Advertisements
Track Severe Weather on mobile